Olga, Washington
Current Conditions -  °F | °C
As of 8:15 AM on Sunday 25 Jan 2015 (Local Time) from KORS Reporting Station
Overcast Overcast  
Wind Chill: 11°   Ceiling: 800
Heat Index: 11°   Visibility: 10mi
Dew Point: 10°   Wind: 10mph
Humidity: 94%   Direction: 190°S
Pressure: 30.14"   Gusts: NA
Location:  48.62°N, 122.83°W
Report Text: KORS 251615Z AUTO 19009KT 10SM OVC008 11/10 A3014 RMK AO2
Loading
Personal Weather Stations






























Interactive Weather Map New forecast layout! Learn more

10-Day Weather Forecast

Advertisements
Track Severe Weather on mobile